createdAt,value
2023-01-21T00:01:02.098Z,10.50
2023-01-21T00:03:29.686Z,10.73
2023-01-21T00:05:58.874Z,10.40
2023-01-21T00:08:26.577Z,9.93
2023-01-21T00:10:54.211Z,10.20
2023-01-21T00:13:21.669Z,9.70
2023-01-21T00:15:49.681Z,11.07
2023-01-21T00:18:17.133Z,9.20
2023-01-21T00:20:45.937Z,9.07
2023-01-21T00:23:14.762Z,8.97
2023-01-21T00:25:42.250Z,9.40
2023-01-21T00:28:09.733Z,9.30
2023-01-21T00:30:37.302Z,8.83
2023-01-21T00:33:05.287Z,8.93
2023-01-21T00:35:42.060Z,9.13
2023-01-21T00:38:09.577Z,9.80
2023-01-21T00:40:38.380Z,9.53
2023-01-21T00:43:05.849Z,9.37
2023-01-21T00:45:33.306Z,10.17
2023-01-21T00:48:00.788Z,9.60
2023-01-21T00:50:28.528Z,9.40
2023-01-21T00:52:56.038Z,9.43
2023-01-21T00:55:23.517Z,9.83
2023-01-21T00:57:53.153Z,10.03
2023-01-21T01:00:20.997Z,9.67
2023-01-21T01:02:48.470Z,9.27
2023-01-21T01:05:16.441Z,8.93
2023-01-21T01:07:46.045Z,9.33
2023-01-21T01:10:13.629Z,9.70
2023-01-21T01:12:41.191Z,9.50
2023-01-21T01:15:10.762Z,9.27
2023-01-21T01:17:38.335Z,9.33
2023-01-21T01:20:06.346Z,8.93
2023-01-21T01:22:33.865Z,9.33
2023-01-21T01:25:02.106Z,9.13
2023-01-21T01:27:30.946Z,9.40
2023-01-21T01:29:58.442Z,8.97
2023-01-21T01:32:27.280Z,9.40
2023-01-21T01:34:54.691Z,8.80
2023-01-21T01:37:22.174Z,9.37
2023-01-21T01:39:49.653Z,9.60
2023-01-21T01:42:17.481Z,9.43
2023-01-21T01:44:58.669Z,9.57
2023-01-21T01:47:30.687Z,9.37
2023-01-21T01:49:58.613Z,9.63
2023-01-21T01:52:26.340Z,9.20
2023-01-21T01:54:55.598Z,8.97
2023-01-21T01:57:24.796Z,8.90
2023-01-21T01:59:52.376Z,9.20
2023-01-21T02:02:20.846Z,9.60
2023-01-21T02:04:52.196Z,9.27
2023-01-21T02:07:20.508Z,9.80
2023-01-21T02:09:47.965Z,9.37
2023-01-21T02:12:15.528Z,9.07
2023-01-21T02:14:43.647Z,9.20
2023-01-21T02:17:21.112Z,9.20
2023-01-21T02:20:10.863Z,9.47
2023-01-21T02:22:42.026Z,9.53
2023-01-21T02:25:27.169Z,9.30
2023-01-21T02:28:07.080Z,9.80
2023-01-21T02:30:51.575Z,9.23
2023-01-21T02:33:38.943Z,8.60
2023-01-21T02:36:15.135Z,9.27
2023-01-21T02:38:46.192Z,9.77
2023-01-21T02:41:19.543Z,10.00
2023-01-21T02:43:50.632Z,9.03
2023-01-21T02:46:19.471Z,10.07
2023-01-21T02:48:51.181Z,8.83
2023-01-21T02:51:19.688Z,8.80
2023-01-21T02:53:47.250Z,9.10
2023-01-21T02:56:16.683Z,9.13
2023-01-21T02:58:46.365Z,9.30
2023-01-21T03:01:18.324Z,9.20
2023-01-21T03:03:54.516Z,9.37
2023-01-21T03:06:31.020Z,9.60
2023-01-21T03:09:00.753Z,8.93
2023-01-21T03:11:29.228Z,9.13
2023-01-21T03:14:16.987Z,9.17
2023-01-21T03:16:57.915Z,8.67
2023-01-21T03:19:31.135Z,9.23
2023-01-21T03:22:00.114Z,9.80
2023-01-21T03:24:28.572Z,10.00
2023-01-21T03:26:57.118Z,9.80
2023-01-21T03:29:27.480Z,10.17
2023-01-21T03:31:57.871Z,9.80
2023-01-21T03:34:27.762Z,10.30
2023-01-21T03:36:58.368Z,9.43
2023-01-21T03:39:30.185Z,9.30
2023-01-21T03:41:57.898Z,9.77
2023-01-21T03:44:25.919Z,8.70
2023-01-21T03:46:57.586Z,10.93
2023-01-21T03:49:29.900Z,9.17
2023-01-21T03:51:58.929Z,8.27
2023-01-21T03:54:26.385Z,8.27
2023-01-21T03:56:53.849Z,8.83
2023-01-21T03:59:21.350Z,8.30
2023-01-21T04:01:48.880Z,8.50
2023-01-21T04:04:16.376Z,8.93
2023-01-21T04:06:45.713Z,7.77
2023-01-21T04:09:13.144Z,8.17
2023-01-21T04:11:40.598Z,8.10
2023-01-21T04:14:08.111Z,7.57
2023-01-21T04:16:35.581Z,8.37
2023-01-21T04:19:03.096Z,7.60
2023-01-21T04:21:30.549Z,7.83
2023-01-21T04:24:01.015Z,7.73
2023-01-21T04:26:28.558Z,7.37
2023-01-21T04:28:56.055Z,7.37
2023-01-21T04:31:23.570Z,8.30
2023-01-21T04:33:51.072Z,7.90
2023-01-21T04:36:25.661Z,8.33
2023-01-21T04:38:53.125Z,7.83
2023-01-21T04:41:23.920Z,7.47
2023-01-21T04:43:52.805Z,7.50
2023-01-21T04:46:20.254Z,6.97
2023-01-21T04:48:47.744Z,7.30
2023-01-21T04:51:15.248Z,7.43
2023-01-21T04:53:42.765Z,7.53
2023-01-21T04:56:10.395Z,6.80
2023-01-21T04:58:39.232Z,6.73
2023-01-21T05:01:06.857Z,6.80
2023-01-21T05:03:34.361Z,7.20
2023-01-21T05:06:02.168Z,7.20
2023-01-21T05:08:30.252Z,7.00
2023-01-21T05:10:57.676Z,7.77
2023-01-21T05:13:25.128Z,7.67
2023-01-21T05:15:53.956Z,6.97
2023-01-21T05:18:21.447Z,6.93
2023-01-21T05:20:48.973Z,7.87
2023-01-21T05:23:16.455Z,7.77
2023-01-21T05:25:43.926Z,7.83
2023-01-21T05:28:11.372Z,7.87
2023-01-21T05:30:41.007Z,7.47
2023-01-21T05:33:10.551Z,7.57
2023-01-21T05:35:37.993Z,7.67
2023-01-21T05:38:05.499Z,7.83
2023-01-21T05:40:32.949Z,7.73
2023-01-21T05:43:00.481Z,7.57
2023-01-21T05:45:28.487Z,7.67
2023-01-21T05:47:55.933Z,7.97
2023-01-21T05:50:24.702Z,7.47
2023-01-21T05:52:52.232Z,7.73
2023-01-21T05:55:19.691Z,7.57
2023-01-21T05:57:47.277Z,7.57
2023-01-21T06:00:16.038Z,8.00
2023-01-21T06:02:43.780Z,7.63
2023-01-21T06:05:11.311Z,7.33
2023-01-21T06:07:40.119Z,7.30
2023-01-21T06:10:09.847Z,7.47
2023-01-21T06:12:37.300Z,7.07
2023-01-21T06:15:05.064Z,6.87
2023-01-21T06:17:32.537Z,7.83
2023-01-21T06:19:59.988Z,6.87
2023-01-21T06:22:27.430Z,7.10
2023-01-21T06:24:56.195Z,7.30
2023-01-21T06:27:23.677Z,7.60
2023-01-21T06:29:51.130Z,7.07
2023-01-21T06:32:18.596Z,6.80
2023-01-21T06:34:46.774Z,6.63
2023-01-21T06:37:14.273Z,6.00
2023-01-21T06:39:41.768Z,6.90
2023-01-21T06:42:10.577Z,6.07
2023-01-21T06:44:38.019Z,6.30
2023-01-21T06:47:05.609Z,6.63
2023-01-21T06:49:33.142Z,6.67
2023-01-21T06:52:00.630Z,7.00
2023-01-21T06:54:30.412Z,7.70
2023-01-21T06:56:58.061Z,7.70
2023-01-21T06:59:26.910Z,7.60
2023-01-21T07:01:55.039Z,8.00
2023-01-21T07:04:22.552Z,8.50
2023-01-21T07:06:50.683Z,7.27
2023-01-21T07:09:18.175Z,8.30
2023-01-21T07:11:45.594Z,7.30
2023-01-21T07:14:13.208Z,7.70
2023-01-21T07:16:42.278Z,7.30
2023-01-21T07:19:09.728Z,7.87
2023-01-21T07:21:37.169Z,7.47
2023-01-21T07:24:04.652Z,6.60
2023-01-21T07:26:36.041Z,7.03
2023-01-21T07:29:03.522Z,6.87
2023-01-21T07:31:31.112Z,6.73
2023-01-21T07:34:00.151Z,6.93
2023-01-21T07:36:28.477Z,8.27
2023-01-21T07:38:56.202Z,8.53
2023-01-21T07:41:23.860Z,7.37
2023-01-21T07:43:51.592Z,9.07
2023-01-21T07:46:19.478Z,7.67
2023-01-21T07:48:48.172Z,8.30
2023-01-21T07:51:17.100Z,8.37
2023-01-21T07:53:52.045Z,9.10
2023-01-21T07:56:20.303Z,9.37
2023-01-21T07:58:47.899Z,9.90
2023-01-21T08:01:15.337Z,9.97
2023-01-21T08:03:42.832Z,11.40
2023-01-21T08:06:10.331Z,11.57
2023-01-21T08:08:39.206Z,13.03
2023-01-21T08:11:06.750Z,12.00
2023-01-21T08:13:34.153Z,12.70
2023-01-21T08:16:01.675Z,13.63
2023-01-21T08:18:29.175Z,13.60
2023-01-21T08:20:56.881Z,14.80
2023-01-21T08:23:24.349Z,14.37
2023-01-21T08:25:53.218Z,14.73
2023-01-21T08:28:20.706Z,13.60
2023-01-21T08:30:48.238Z,11.43
2023-01-21T08:33:16.065Z,11.13
2023-01-21T08:35:43.554Z,11.90
2023-01-21T08:38:11.005Z,11.67
2023-01-21T08:40:38.433Z,12.47
2023-01-21T08:43:07.859Z,12.60
2023-01-21T08:45:35.372Z,13.10
2023-01-21T08:48:03.511Z,13.43
2023-01-21T08:50:30.932Z,12.77
2023-01-21T08:52:58.599Z,13.43
2023-01-21T08:55:26.797Z,13.70
2023-01-21T08:57:54.517Z,14.60
2023-01-21T09:00:23.908Z,13.43
2023-01-21T09:02:51.755Z,13.93
2023-01-21T09:05:19.438Z,15.10
2023-01-21T09:07:47.248Z,15.73
2023-01-21T09:10:35.337Z,15.53
2023-01-21T09:13:06.095Z,14.10
2023-01-21T09:15:38.096Z,15.43
2023-01-21T09:18:05.623Z,15.70
2023-01-21T09:20:33.146Z,15.57
2023-01-21T09:23:00.610Z,15.43
2023-01-21T09:25:28.497Z,15.13
2023-01-21T09:27:55.989Z,15.20
2023-01-21T09:30:23.451Z,16.40
2023-01-21T09:32:52.244Z,16.07
2023-01-21T09:35:19.763Z,16.60
2023-01-21T09:37:48.098Z,16.10
2023-01-21T09:40:19.816Z,16.60
2023-01-21T09:42:47.309Z,16.33
2023-01-21T09:45:16.101Z,17.73
2023-01-21T09:47:45.884Z,16.23
2023-01-21T09:50:16.628Z,17.27
2023-01-21T09:52:45.057Z,17.50
2023-01-21T09:55:16.200Z,17.00
2023-01-21T09:57:53.170Z,16.87
2023-01-21T10:00:25.613Z,16.90
2023-01-21T10:02:56.756Z,17.13
2023-01-21T10:05:40.345Z,16.90
2023-01-21T10:08:11.501Z,16.67
2023-01-21T10:10:43.191Z,17.30
2023-01-21T10:13:19.666Z,17.23
2023-01-21T10:15:52.169Z,17.10
2023-01-21T10:18:21.104Z,17.40
2023-01-21T10:20:52.166Z,16.13
2023-01-21T10:23:21.471Z,17.50
2023-01-21T10:25:49.753Z,17.83
2023-01-21T10:28:20.487Z,17.47
2023-01-21T10:30:50.249Z,16.80
2023-01-21T10:33:19.142Z,17.33
2023-01-21T10:36:08.004Z,16.83
2023-01-21T10:38:40.881Z,16.87
2023-01-21T10:41:14.865Z,17.03
2023-01-21T10:43:46.806Z,16.97
2023-01-21T10:46:17.491Z,17.80
2023-01-21T10:48:47.532Z,17.17
2023-01-21T10:51:17.742Z,17.50
2023-01-21T10:53:49.970Z,18.23
2023-01-21T10:56:21.033Z,17.40
2023-01-21T10:58:50.124Z,16.87
2023-01-21T11:01:20.792Z,17.80
2023-01-21T11:03:49.268Z,17.40
2023-01-21T11:06:18.545Z,17.07
2023-01-21T11:08:49.467Z,16.33
2023-01-21T11:11:19.566Z,17.83
2023-01-21T11:13:47.056Z,17.00
2023-01-21T11:16:14.517Z,18.13
2023-01-21T11:18:42.847Z,16.97
2023-01-21T11:21:17.382Z,17.90
2023-01-21T11:23:53.005Z,16.70
2023-01-21T11:26:24.863Z,15.83
2023-01-21T11:29:07.140Z,14.67
2023-01-21T11:31:34.904Z,16.17
2023-01-21T11:34:07.208Z,14.27
2023-01-21T11:36:35.125Z,13.53
2023-01-21T11:39:04.954Z,13.87
2023-01-21T11:41:34.297Z,13.50
2023-01-21T11:44:17.005Z,13.47
2023-01-21T11:46:44.489Z,13.37
2023-01-21T11:49:22.355Z,13.60
2023-01-21T11:51:49.803Z,12.73
2023-01-21T11:54:18.172Z,12.07
2023-01-21T11:56:55.167Z,11.90
2023-01-21T11:59:25.167Z,10.53
2023-01-21T12:01:54.523Z,10.73
2023-01-21T12:04:22.102Z,13.47
2023-01-21T12:06:51.625Z,11.73
2023-01-21T12:09:19.923Z,10.57
2023-01-21T12:11:51.856Z,10.57
2023-01-21T12:14:24.166Z,11.13
2023-01-21T12:16:58.819Z,11.50
2023-01-21T12:19:47.132Z,12.70
2023-01-21T12:22:23.737Z,12.70
2023-01-21T12:25:12.103Z,12.40
2023-01-21T12:27:47.042Z,12.70
2023-01-21T12:30:23.655Z,11.43
2023-01-21T12:32:53.256Z,15.00
2023-01-21T12:35:24.331Z,14.87
2023-01-21T12:37:54.789Z,13.40
2023-01-21T12:40:25.174Z,12.27
2023-01-21T12:42:54.969Z,14.00
2023-01-21T12:45:26.196Z,13.40
2023-01-21T12:47:57.286Z,13.00
2023-01-21T12:50:27.650Z,13.40
2023-01-21T12:53:06.774Z,13.00
2023-01-21T12:55:39.843Z,13.83
2023-01-21T12:58:09.933Z,13.73
2023-01-21T13:00:40.259Z,14.77
2023-01-21T13:03:16.121Z,14.70
2023-01-21T13:05:47.261Z,13.20
2023-01-21T13:08:30.987Z,13.33
2023-01-21T13:10:59.922Z,15.33
2023-01-21T13:13:30.511Z,14.00
2023-01-21T13:16:02.215Z,13.03
2023-01-21T13:18:31.859Z,12.73
2023-01-21T13:21:02.140Z,13.03
2023-01-21T13:23:33.310Z,13.70
2023-01-21T13:26:04.285Z,13.13
2023-01-21T13:28:34.671Z,12.47
2023-01-21T13:31:08.982Z,12.47
2023-01-21T13:33:43.139Z,14.23
2023-01-21T13:36:18.886Z,12.43
2023-01-21T13:38:50.786Z,18.20
2023-01-21T13:41:24.158Z,13.00
2023-01-21T13:43:59.391Z,13.57
2023-01-21T13:46:39.333Z,13.27
2023-01-21T13:49:12.499Z,12.93
2023-01-21T13:51:44.443Z,11.90
2023-01-21T13:54:28.360Z,12.37
2023-01-21T13:57:02.167Z,11.80
2023-01-21T13:59:31.781Z,11.63
2023-01-21T14:02:03.223Z,12.80
2023-01-21T14:04:34.069Z,12.53
2023-01-21T14:07:04.026Z,12.33
2023-01-21T14:09:37.159Z,12.00
2023-01-21T14:12:07.223Z,12.73
2023-01-21T14:14:50.732Z,13.03
2023-01-21T14:17:42.148Z,11.90
2023-01-21T14:20:27.590Z,11.67
2023-01-21T14:23:14.381Z,12.00
2023-01-21T14:25:50.330Z,11.13
2023-01-21T14:28:21.287Z,11.70
2023-01-21T14:30:50.941Z,11.57
2023-01-21T14:33:19.647Z,10.70
2023-01-21T14:35:50.825Z,10.23
2023-01-21T14:38:24.108Z,11.07
2023-01-21T14:40:52.177Z,11.67
2023-01-21T14:43:20.421Z,11.00
2023-01-21T14:45:55.342Z,11.37
2023-01-21T14:48:29.798Z,10.53
2023-01-21T14:51:10.071Z,10.33
2023-01-21T14:53:44.791Z,11.63
2023-01-21T14:56:18.207Z,10.47
2023-01-21T14:58:46.496Z,11.13
2023-01-21T15:01:25.934Z,11.47
2023-01-21T15:03:53.650Z,11.57
2023-01-21T15:06:22.844Z,11.97
2023-01-21T15:08:52.438Z,12.27
2023-01-21T15:11:21.371Z,13.23
2023-01-21T15:13:51.219Z,12.63
2023-01-21T15:16:32.715Z,13.27
2023-01-21T15:19:19.032Z,13.47
2023-01-21T15:22:00.593Z,16.07
2023-01-21T15:24:31.512Z,14.47
2023-01-21T15:27:15.547Z,11.80
2023-01-21T15:29:44.004Z,12.10
2023-01-21T15:32:28.253Z,11.03
2023-01-21T15:34:57.624Z,11.17
2023-01-21T15:37:25.698Z,16.77
2023-01-21T15:39:58.497Z,13.00
2023-01-21T15:42:31.504Z,10.90
2023-01-21T15:45:05.944Z,14.10
2023-01-21T15:47:41.030Z,12.73
2023-01-21T15:50:10.954Z,20.30
2023-01-21T15:52:45.030Z,16.00
2023-01-21T15:55:37.735Z,15.77
2023-01-21T15:58:13.227Z,11.07
2023-01-21T16:00:45.766Z,12.07
2023-01-21T16:03:18.448Z,11.43
2023-01-21T16:05:50.381Z,12.43
2023-01-21T16:08:27.841Z,13.47
2023-01-21T16:11:02.798Z,11.80
2023-01-21T16:13:35.557Z,12.77
2023-01-21T16:16:09.135Z,13.97
2023-01-21T16:18:43.607Z,12.63
2023-01-21T16:21:11.965Z,11.80
2023-01-21T16:23:41.946Z,13.13
2023-01-21T16:26:10.850Z,13.63
2023-01-21T16:28:41.664Z,12.43
2023-01-21T16:31:09.215Z,12.57
2023-01-21T16:33:36.770Z,12.37
2023-01-21T16:36:07.082Z,12.10
2023-01-21T16:38:35.100Z,12.73
2023-01-21T16:43:59.127Z,11.87
2023-01-21T16:46:27.608Z,11.07
2023-01-21T16:48:57.192Z,11.53
2023-01-21T16:51:28.591Z,12.47
2023-01-21T16:54:11.038Z,12.47
2023-01-21T16:56:47.088Z,11.63
2023-01-21T16:59:20.440Z,11.73
2023-01-21T17:01:50.123Z,12.63
2023-01-21T17:04:17.698Z,13.23
2023-01-21T17:06:46.302Z,13.23
2023-01-21T17:09:22.812Z,13.40
2023-01-21T17:11:50.267Z,12.93
2023-01-21T17:14:21.879Z,14.30
2023-01-21T17:16:49.631Z,13.03
2023-01-21T17:19:24.520Z,14.17
2023-01-21T17:21:55.440Z,13.03
2023-01-21T17:24:25.011Z,18.03
2023-01-21T17:26:54.787Z,14.60
2023-01-21T17:29:27.301Z,14.27
2023-01-21T17:31:56.002Z,12.27
2023-01-21T17:34:24.831Z,11.80
2023-01-21T17:36:53.002Z,11.70
2023-01-21T17:39:39.363Z,11.93
2023-01-21T17:42:06.811Z,11.37
2023-01-21T17:44:36.012Z,12.30
2023-01-21T17:47:03.554Z,11.80
2023-01-21T17:49:31.093Z,12.70
2023-01-21T17:51:58.577Z,11.97
2023-01-21T17:54:27.054Z,11.97
2023-01-21T17:56:55.804Z,11.17
2023-01-21T17:59:27.392Z,12.57
2023-01-21T18:01:56.538Z,12.33
2023-01-21T18:04:24.103Z,12.00
2023-01-21T18:06:52.698Z,12.53
2023-01-21T18:09:21.251Z,13.10
2023-01-21T18:11:49.059Z,12.10
2023-01-21T18:14:17.840Z,12.83
2023-01-21T18:16:45.488Z,12.40
2023-01-21T18:19:27.043Z,12.43
2023-01-21T18:21:54.639Z,12.67
2023-01-21T18:24:22.582Z,11.83
2023-01-21T18:26:50.235Z,12.90
2023-01-21T18:29:19.339Z,11.73
2023-01-21T18:31:48.764Z,11.90
2023-01-21T18:34:17.632Z,11.80
2023-01-21T18:36:45.348Z,12.67
2023-01-21T18:39:13.862Z,11.00
2023-01-21T18:41:41.312Z,11.00
2023-01-21T18:44:09.093Z,11.80
2023-01-21T18:46:41.372Z,11.90
2023-01-21T18:49:13.434Z,11.63
2023-01-21T18:51:42.260Z,11.07
2023-01-21T18:54:09.740Z,11.63
2023-01-21T18:56:37.323Z,12.23
2023-01-21T18:59:10.553Z,10.80
2023-01-21T19:01:38.088Z,11.17
2023-01-21T19:04:09.528Z,11.43
2023-01-21T19:06:37.476Z,9.13
2023-01-21T19:09:12.013Z,9.47
2023-01-21T19:11:41.095Z,11.93
2023-01-21T19:14:08.555Z,9.07
2023-01-21T19:16:36.196Z,8.60
2023-01-21T19:19:10.349Z,8.40
2023-01-21T19:21:37.854Z,9.23
2023-01-21T19:24:07.340Z,8.57
2023-01-21T19:26:34.871Z,11.50
2023-01-21T19:29:03.211Z,8.90
2023-01-21T19:31:31.282Z,10.33
2023-01-21T19:33:58.765Z,9.50
2023-01-21T19:36:26.465Z,8.40
2023-01-21T19:38:55.265Z,8.77
2023-01-21T19:41:24.329Z,8.63
2023-01-21T19:43:51.828Z,8.80
2023-01-21T19:46:19.723Z,8.13
2023-01-21T19:48:50.181Z,8.30
2023-01-21T19:51:17.670Z,8.73
2023-01-21T19:53:45.184Z,8.77
2023-01-21T19:56:14.894Z,8.50
2023-01-21T19:58:43.725Z,8.77
2023-01-21T20:01:11.872Z,9.13
2023-01-21T20:03:48.049Z,8.93
2023-01-21T20:06:23.373Z,9.13
2023-01-21T20:08:51.167Z,8.73
2023-01-21T20:11:18.698Z,8.03
2023-01-21T20:13:47.497Z,8.97
2023-01-21T20:16:16.277Z,8.83
2023-01-21T20:18:46.080Z,8.20
2023-01-21T20:21:13.579Z,8.73
2023-01-21T20:23:41.062Z,8.77
2023-01-21T20:26:09.884Z,9.77
2023-01-21T20:28:39.568Z,8.90
2023-01-21T20:31:08.604Z,9.50
2023-01-21T20:33:36.677Z,9.77
2023-01-21T20:36:05.060Z,8.43
2023-01-21T20:38:33.558Z,8.97
2023-01-21T20:41:01.468Z,9.30
2023-01-21T20:43:28.937Z,8.33
2023-01-21T20:45:58.323Z,7.60
2023-01-21T20:48:29.048Z,8.07
2023-01-21T20:50:56.839Z,8.53
2023-01-21T20:53:24.420Z,7.93
2023-01-21T20:55:52.467Z,7.80
2023-01-21T20:58:21.873Z,7.73
2023-01-21T21:00:49.724Z,8.87
2023-01-21T21:03:18.132Z,8.60
2023-01-21T21:05:47.966Z,8.67
2023-01-21T21:08:16.367Z,8.57
2023-01-21T21:10:43.918Z,8.07
2023-01-21T21:13:12.090Z,8.23
2023-01-21T21:15:39.561Z,8.30
2023-01-21T21:18:07.138Z,8.63
2023-01-21T21:20:36.846Z,8.33
2023-01-21T21:23:05.675Z,7.83
2023-01-21T21:25:36.782Z,7.77
2023-01-21T21:28:04.351Z,7.53
2023-01-21T21:30:32.906Z,7.50
2023-01-21T21:33:02.057Z,8.17
2023-01-21T21:35:30.560Z,8.40
2023-01-21T21:37:58.933Z,7.53
2023-01-21T21:40:29.226Z,7.17
2023-01-21T21:43:14.460Z,7.47
2023-01-21T21:46:02.224Z,7.10
2023-01-21T21:48:37.952Z,7.73
2023-01-21T21:51:05.764Z,7.57
2023-01-21T21:53:33.240Z,7.47
2023-01-21T21:56:04.032Z,7.90
2023-01-21T21:58:31.518Z,7.53
2023-01-21T22:01:06.970Z,7.20
2023-01-21T22:03:34.446Z,6.63
2023-01-21T22:06:03.964Z,7.90
2023-01-21T22:08:32.565Z,8.00
2023-01-21T22:11:00.630Z,8.13
2023-01-21T22:13:30.404Z,8.87
2023-01-21T22:15:58.992Z,9.37
2023-01-21T22:18:27.140Z,9.23
2023-01-21T22:21:00.299Z,9.17
2023-01-21T22:23:29.460Z,9.03
2023-01-21T22:25:57.048Z,9.30
2023-01-21T22:28:24.515Z,8.03
2023-01-21T22:30:53.441Z,9.03
2023-01-21T22:33:22.405Z,8.07
2023-01-21T22:35:49.932Z,8.57
2023-01-21T22:38:17.396Z,7.93
2023-01-21T22:40:44.823Z,8.70
2023-01-21T22:43:12.425Z,8.17
2023-01-21T22:45:41.113Z,8.30
2023-01-21T22:48:09.949Z,8.10
2023-01-21T22:50:40.415Z,8.10
2023-01-21T22:53:08.565Z,8.40
2023-01-21T22:55:36.399Z,8.20
2023-01-21T22:58:03.891Z,8.33
2023-01-21T23:00:35.826Z,8.80
2023-01-21T23:03:03.320Z,8.50
2023-01-21T23:05:32.464Z,7.87
2023-01-21T23:10:32.421Z,8.10
2023-01-21T23:12:59.912Z,8.30
2023-01-21T23:15:27.665Z,8.37
2023-01-21T23:17:55.112Z,8.40
2023-01-21T23:20:22.591Z,8.50
2023-01-21T23:22:51.364Z,7.73
2023-01-21T23:25:18.875Z,7.87
2023-01-21T23:27:46.834Z,8.23
2023-01-21T23:30:14.593Z,8.03
2023-01-21T23:32:42.150Z,8.30
2023-01-21T23:35:10.025Z,7.47
2023-01-21T23:37:38.193Z,8.27
2023-01-21T23:40:08.048Z,8.40
2023-01-21T23:42:35.525Z,8.20
2023-01-21T23:45:03.418Z,8.33
2023-01-21T23:47:30.904Z,9.00
2023-01-21T23:49:58.345Z,8.77
2023-01-21T23:52:25.998Z,9.00
2023-01-21T23:54:53.485Z,8.57
2023-01-21T23:57:22.340Z,8.93
2023-01-21T23:59:49.918Z,8.10
